sensor_id;sensor_type;location;lat;lon;timestamp;temperature;humidity
10901;DHT22;5503;53.208;10.392;2022-11-20T00:03:59;5.70;1.00
10901;DHT22;5503;53.208;10.392;2022-11-20T00:06:27;3.70;1.00
10901;DHT22;5503;53.208;10.392;2022-11-20T00:08:55;3.60;1.00
10901;DHT22;5503;53.208;10.392;2022-11-20T00:11:24;3.60;1.00
10901;DHT22;5503;53.208;10.392;2022-11-20T00:13:53;3.50;99.90
10901;DHT22;5503;53.208;10.392;2022-11-20T00:16:23;3.40;1.00
10901;DHT22;5503;53.208;10.392;2022-11-20T00:21:19;3.30;99.90
10901;DHT22;5503;53.208;10.392;2022-11-20T00:23:47;3.40;1.00
10901;DHT22;5503;53.208;10.392;2022-11-20T00:26:15;3.50;1.00
10901;DHT22;5503;53.208;10.392;2022-11-20T00:28:44;3.40;1.00
10901;DHT22;5503;53.208;10.392;2022-11-20T00:31:12;3.30;99.90
10901;DHT22;5503;53.208;10.392;2022-11-20T00:33:41;3.30;1.00
10901;DHT22;5503;53.208;10.392;2022-11-20T00:36:10;3.40;99.90
10901;DHT22;5503;53.208;10.392;2022-11-20T00:38:37;3.30;99.90
10901;DHT22;5503;53.208;10.392;2022-11-20T00:41:06;3.30;1.00
10901;DHT22;5503;53.208;10.392;2022-11-20T00:43:34;3.20;1.00
10901;DHT22;5503;53.208;10.392;2022-11-20T00:46:03;3.20;1.00
10901;DHT22;5503;53.208;10.392;2022-11-20T00:50:59;3.40;1.00
10901;DHT22;5503;53.208;10.392;2022-11-20T00:55:54;3.30;1.00
10901;DHT22;5503;53.208;10.392;2022-11-20T01:08:12;3.60;79.10
10901;DHT22;5503;53.208;10.392;2022-11-20T01:23:15;3.50;1.00
10901;DHT22;5503;53.208;10.392;2022-11-20T01:40:26;3.30;99.90
10901;DHT22;5503;53.208;10.392;2022-11-20T01:43:01;3.20;99.90
10901;DHT22;5503;53.208;10.392;2022-11-20T01:46:04;3.30;99.90
10901;DHT22;5503;53.208;10.392;2022-11-20T01:48:36;3.30;1.00
10901;DHT22;5503;53.208;10.392;2022-11-20T01:51:09;3.20;1.00
10901;DHT22;5503;53.208;10.392;2022-11-20T01:53:37;3.30;1.00
10901;DHT22;5503;53.208;10.392;2022-11-20T01:56:08;3.50;99.90
10901;DHT22;5503;53.208;10.392;2022-11-20T01:58:38;3.50;99.90
10901;DHT22;5503;53.208;10.392;2022-11-20T02:06:06;3.40;1.00
10901;DHT22;5503;53.208;10.392;2022-11-20T02:13:37;3.50;99.90
10901;DHT22;5503;53.208;10.392;2022-11-20T02:16:13;3.40;1.00
10901;DHT22;5503;53.208;10.392;2022-11-20T02:18:41;3.50;1.00
10901;DHT22;5503;53.208;10.392;2022-11-20T02:21:24;3.40;99.90
10901;DHT22;5503;53.208;10.392;2022-11-20T02:24:00;3.30;1.00
10901;DHT22;5503;53.208;10.392;2022-11-20T02:26:29;6.80;1.00
10901;DHT22;5503;53.208;10.392;2022-11-20T02:28:58;3.20;1.00
10901;DHT22;5503;53.208;10.392;2022-11-20T02:31:26;3.20;1.00
10901;DHT22;5503;53.208;10.392;2022-11-20T02:33:57;1.50;1.00
10901;DHT22;5503;53.208;10.392;2022-11-20T02:36:26;3.20;1.00
10901;DHT22;5503;53.208;10.392;2022-11-20T02:41:31;3.30;99.90
10901;DHT22;5503;53.208;10.392;2022-11-20T02:43:58;2.90;99.90
10901;DHT22;5503;53.208;10.392;2022-11-20T02:58:43;2.90;99.90
10901;DHT22;5503;53.208;10.392;2022-11-20T03:06:05;3.00;99.90
10901;DHT22;5503;53.208;10.392;2022-11-20T03:11:03;2.90;1.00
10901;DHT22;5503;53.208;10.392;2022-11-20T03:16:05;2.90;1.00
10901;DHT22;5503;53.208;10.392;2022-11-20T03:23:29;3.10;99.90
10901;DHT22;5503;53.208;10.392;2022-11-20T03:33:20;3.30;1.00
10901;DHT22;5503;53.208;10.392;2022-11-20T03:43:09;3.20;1.00
10901;DHT22;5503;53.208;10.392;2022-11-20T03:48:04;3.30;1.00
10901;DHT22;5503;53.208;10.392;2022-11-20T03:50:33;3.30;99.90
10901;DHT22;5503;53.208;10.392;2022-11-20T03:53:00;3.50;1.00
10901;DHT22;5503;53.208;10.392;2022-11-20T04:07:45;3.50;1.00
10901;DHT22;5503;53.208;10.392;2022-11-20T04:15:07;3.30;1.00
10901;DHT22;5503;53.208;10.392;2022-11-20T04:20:02;3.30;1.00
10901;DHT22;5503;53.208;10.392;2022-11-20T04:24:58;3.30;99.90
10901;DHT22;5503;53.208;10.392;2022-11-20T04:42:11;3.30;1.00
10901;DHT22;5503;53.208;10.392;2022-11-20T04:44:57;3.30;99.90
10901;DHT22;5503;53.208;10.392;2022-11-20T04:57:15;3.20;99.90
10901;DHT22;5503;53.208;10.392;2022-11-20T05:02:10;3.10;1.00
10901;DHT22;5503;53.208;10.392;2022-11-20T05:14:27;3.20;74.50
10901;DHT22;5503;53.208;10.392;2022-11-20T05:16:55;3.10;98.90
10901;DHT22;5503;53.208;10.392;2022-11-20T05:26:44;3.00;1.00
10901;DHT22;5503;53.208;10.392;2022-11-20T05:29:12;3.10;1.00
10901;DHT22;5503;53.208;10.392;2022-11-20T05:31:41;2.90;1.00
10901;DHT22;5503;53.208;10.392;2022-11-20T05:46:25;3.10;99.90
10901;DHT22;5503;53.208;10.392;2022-11-20T05:48:54;3.20;99.90
10901;DHT22;5503;53.208;10.392;2022-11-20T05:56:18;3.10;59.40
10901;DHT22;5503;53.208;10.392;2022-11-20T05:58:45;3.10;1.00
10901;DHT22;5503;53.208;10.392;2022-11-20T06:01:15;3.00;99.90
10901;DHT22;5503;53.208;10.392;2022-11-20T06:03:43;2.90;1.00
10901;DHT22;5503;53.208;10.392;2022-11-20T06:06:15;2.90;99.90
10901;DHT22;5503;53.208;10.392;2022-11-20T06:08:42;2.90;99.90
10901;DHT22;5503;53.208;10.392;2022-11-20T06:11:11;3.00;99.30
10901;DHT22;5503;53.208;10.392;2022-11-20T06:16:06;6.70;1.00
10901;DHT22;5503;53.208;10.392;2022-11-20T06:21:02;3.00;1.00
10901;DHT22;5503;53.208;10.392;2022-11-20T06:23:33;2.90;70.40
10901;DHT22;5503;53.208;10.392;2022-11-20T06:26:02;3.00;99.90
10901;DHT22;5503;53.208;10.392;2022-11-20T06:30:57;2.90;1.00
10901;DHT22;5503;53.208;10.392;2022-11-20T06:33:24;2.90;1.00
10901;DHT22;5503;53.208;10.392;2022-11-20T06:40:47;2.70;1.00
10901;DHT22;5503;53.208;10.392;2022-11-20T06:43:14;2.80;1.00
10901;DHT22;5503;53.208;10.392;2022-11-20T06:53:04;3.00;1.00
10901;DHT22;5503;53.208;10.392;2022-11-20T06:55:32;2.90;1.00
10901;DHT22;5503;53.208;10.392;2022-11-20T06:58:00;3.00;1.00
10901;DHT22;5503;53.208;10.392;2022-11-20T07:12:49;3.00;1.00
10901;DHT22;5503;53.208;10.392;2022-11-20T07:15:18;2.90;99.90
10901;DHT22;5503;53.208;10.392;2022-11-20T07:25:08;3.20;1.00
10901;DHT22;5503;53.208;10.392;2022-11-20T07:30:04;3.10;1.00
10901;DHT22;5503;53.208;10.392;2022-11-20T07:32:33;3.00;1.00
10901;DHT22;5503;53.208;10.392;2022-11-20T07:49:45;3.00;99.90
10901;DHT22;5503;53.208;10.392;2022-11-20T08:04:29;3.40;98.70
10901;DHT22;5503;53.208;10.392;2022-11-20T08:06:59;3.40;1.00
10901;DHT22;5503;53.208;10.392;2022-11-20T08:11:53;3.20;99.90
10901;DHT22;5503;53.208;10.392;2022-11-20T08:22:06;3.60;99.90
10901;DHT22;5503;53.208;10.392;2022-11-20T08:27:01;3.80;99.90
10901;DHT22;5503;53.208;10.392;2022-11-20T08:39:18;6.90;52.30
10901;DHT22;5503;53.208;10.392;2022-11-20T08:46:41;3.90;1.00
10901;DHT22;5503;53.208;10.392;2022-11-20T08:49:10;3.80;51.80
10901;DHT22;5503;53.208;10.392;2022-11-20T08:51:38;4.00;1.00
10901;DHT22;5503;53.208;10.392;2022-11-20T08:54:06;4.10;1.00
10901;DHT22;5503;53.208;10.392;2022-11-20T08:56:35;4.10;99.90
10901;DHT22;5503;53.208;10.392;2022-11-20T09:06:25;4.40;99.90
10901;DHT22;5503;53.208;10.392;2022-11-20T09:11:23;4.60;99.90
10901;DHT22;5503;53.208;10.392;2022-11-20T09:13:51;4.60;1.00
10901;DHT22;5503;53.208;10.392;2022-11-20T09:26:11;4.80;99.90
10901;DHT22;5503;53.208;10.392;2022-11-20T09:31:08;4.70;99.90
10901;DHT22;5503;53.208;10.392;2022-11-20T09:41:01;4.70;42.70
10901;DHT22;5503;53.208;10.392;2022-11-20T09:43:52;4.30;1.00
10901;DHT22;5503;53.208;10.392;2022-11-20T09:46:29;4.30;1.00
10901;DHT22;5503;53.208;10.392;2022-11-20T09:49:15;4.20;1.00
10901;DHT22;5503;53.208;10.392;2022-11-20T09:51:49;4.30;37.30
10901;DHT22;5503;53.208;10.392;2022-11-20T09:54:22;4.20;1.00
10901;DHT22;5503;53.208;10.392;2022-11-20T09:56:56;4.20;1.00
10901;DHT22;5503;53.208;10.392;2022-11-20T09:59:37;4.10;99.90
10901;DHT22;5503;53.208;10.392;2022-11-20T10:02:28;3.80;99.90
10901;DHT22;5503;53.208;10.392;2022-11-20T10:04:59;4.30;99.90
10901;DHT22;5503;53.208;10.392;2022-11-20T10:07:33;3.70;1.00
10901;DHT22;5503;53.208;10.392;2022-11-20T10:10:05;3.60;1.00
10901;DHT22;5503;53.208;10.392;2022-11-20T10:12:43;3.70;1.00
10901;DHT22;5503;53.208;10.392;2022-11-20T10:15:25;3.80;99.90
10901;DHT22;5503;53.208;10.392;2022-11-20T10:18:15;3.80;99.90
10901;DHT22;5503;53.208;10.392;2022-11-20T10:20:49;4.00;99.90
10901;DHT22;5503;53.208;10.392;2022-11-20T10:23:30;3.90;1.00
10901;DHT22;5503;53.208;10.392;2022-11-20T10:26:02;3.90;1.00
10901;DHT22;5503;53.208;10.392;2022-11-20T10:28:39;4.10;1.00
10901;DHT22;5503;53.208;10.392;2022-11-20T10:34:00;4.10;1.00
10901;DHT22;5503;53.208;10.392;2022-11-20T10:36:34;4.10;3.80
10901;DHT22;5503;53.208;10.392;2022-11-20T10:39:07;4.00;99.90
10901;DHT22;5503;53.208;10.392;2022-11-20T10:41:42;4.20;99.90
10901;DHT22;5503;53.208;10.392;2022-11-20T10:44:17;4.20;96.60
10901;DHT22;5503;53.208;10.392;2022-11-20T10:47:24;4.10;99.90
10901;DHT22;5503;53.208;10.392;2022-11-20T10:49:56;4.10;1.00
10901;DHT22;5503;53.208;10.392;2022-11-20T10:52:31;4.10;1.00
10901;DHT22;5503;53.208;10.392;2022-11-20T10:55:06;4.30;99.90
10901;DHT22;5503;53.208;10.392;2022-11-20T10:57:51;4.40;1.00
10901;DHT22;5503;53.208;10.392;2022-11-20T11:02:55;4.60;1.00
10901;DHT22;5503;53.208;10.392;2022-11-20T11:05:41;4.60;1.00
10901;DHT22;5503;53.208;10.392;2022-11-20T11:08:14;4.60;1.00
10901;DHT22;5503;53.208;10.392;2022-11-20T11:10:47;4.80;99.90
10901;DHT22;5503;53.208;10.392;2022-11-20T11:13:21;5.10;1.00
10901;DHT22;5503;53.208;10.392;2022-11-20T11:15:48;5.10;1.00
10901;DHT22;5503;53.208;10.392;2022-11-20T11:18:24;5.10;9.80
10901;DHT22;5503;53.208;10.392;2022-11-20T11:20:54;4.90;99.90
10901;DHT22;5503;53.208;10.392;2022-11-20T11:23:32;5.00;1.00
10901;DHT22;5503;53.208;10.392;2022-11-20T11:26:01;5.00;1.00
10901;DHT22;5503;53.208;10.392;2022-11-20T11:30:56;4.90;62.30
10901;DHT22;5503;53.208;10.392;2022-11-20T11:33:24;4.90;99.90
10901;DHT22;5503;53.208;10.392;2022-11-20T11:35:54;5.10;99.90
10901;DHT22;5503;53.208;10.392;2022-11-20T11:38:30;5.30;99.90
10901;DHT22;5503;53.208;10.392;2022-11-20T11:43:26;5.30;99.90
10901;DHT22;5503;53.208;10.392;2022-11-20T11:46:25;5.30;99.90
10901;DHT22;5503;53.208;10.392;2022-11-20T11:48:58;5.20;99.90
10901;DHT22;5503;53.208;10.392;2022-11-20T11:51:34;5.40;52.70
10901;DHT22;5503;53.208;10.392;2022-11-20T11:54:14;8.90;1.00
10901;DHT22;5503;53.208;10.392;2022-11-20T11:56:43;5.80;1.00
10901;DHT22;5503;53.208;10.392;2022-11-20T11:59:14;5.90;1.00
10901;DHT22;5503;53.208;10.392;2022-11-20T12:01:45;5.90;1.00
10901;DHT22;5503;53.208;10.392;2022-11-20T12:04:17;5.70;47.90
10901;DHT22;5503;53.208;10.392;2022-11-20T12:06:51;5.70;68.70
10901;DHT22;5503;53.208;10.392;2022-11-20T12:09:23;6.10;1.00
10901;DHT22;5503;53.208;10.392;2022-11-20T12:11:54;5.90;1.00
10901;DHT22;5503;53.208;10.392;2022-11-20T12:14:27;5.80;99.90
10901;DHT22;5503;53.208;10.392;2022-11-20T12:22:00;5.50;10.10
10901;DHT22;5503;53.208;10.392;2022-11-20T12:24:52;5.60;13.20
10901;DHT22;5503;53.208;10.392;2022-11-20T12:27:49;5.60;99.90
10901;DHT22;5503;53.208;10.392;2022-11-20T12:30:21;5.60;1.00
10901;DHT22;5503;53.208;10.392;2022-11-20T12:36:02;5.50;1.00
10901;DHT22;5503;53.208;10.392;2022-11-20T12:38:51;5.60;1.00
10901;DHT22;5503;53.208;10.392;2022-11-20T12:41:33;5.60;1.00
10901;DHT22;5503;53.208;10.392;2022-11-20T12:47:36;5.70;1.00
10901;DHT22;5503;53.208;10.392;2022-11-20T12:50:12;5.60;1.00
10901;DHT22;5503;53.208;10.392;2022-11-20T12:52:47;5.50;99.90
10901;DHT22;5503;53.208;10.392;2022-11-20T12:55:28;5.70;99.90
10901;DHT22;5503;53.208;10.392;2022-11-20T12:58:04;5.70;67.60
10901;DHT22;5503;53.208;10.392;2022-11-20T13:00:33;6.00;1.00
10901;DHT22;5503;53.208;10.392;2022-11-20T13:03:29;5.90;1.00
10901;DHT22;5503;53.208;10.392;2022-11-20T13:06:05;6.00;1.00
10901;DHT22;5503;53.208;10.392;2022-11-20T13:08:39;6.20;1.00
10901;DHT22;5503;53.208;10.392;2022-11-20T13:11:13;6.20;1.00
10901;DHT22;5503;53.208;10.392;2022-11-20T13:13:51;6.00;99.90
10901;DHT22;5503;53.208;10.392;2022-11-20T13:16:26;5.60;1.00
10901;DHT22;5503;53.208;10.392;2022-11-20T13:19:02;5.40;99.90
10901;DHT22;5503;53.208;10.392;2022-11-20T13:21:37;5.60;1.00
10901;DHT22;5503;53.208;10.392;2022-11-20T13:24:05;5.60;1.00
10901;DHT22;5503;53.208;10.392;2022-11-20T13:26:33;5.70;1.00
10901;DHT22;5503;53.208;10.392;2022-11-20T13:29:07;5.70;1.00
10901;DHT22;5503;53.208;10.392;2022-11-20T13:31:38;5.70;1.00
10901;DHT22;5503;53.208;10.392;2022-11-20T13:34:12;5.70;1.00
10901;DHT22;5503;53.208;10.392;2022-11-20T13:36:49;5.50;22.80
10901;DHT22;5503;53.208;10.392;2022-11-20T13:39:24;5.60;13.40
10901;DHT22;5503;53.208;10.392;2022-11-20T13:41:56;5.70;1.00
10901;DHT22;5503;53.208;10.392;2022-11-20T13:44:26;5.70;1.00
10901;DHT22;5503;53.208;10.392;2022-11-20T13:46:55;5.70;1.00
10901;DHT22;5503;53.208;10.392;2022-11-20T13:49:26;5.40;1.00
10901;DHT22;5503;53.208;10.392;2022-11-20T13:52:03;6.10;1.00
10901;DHT22;5503;53.208;10.392;2022-11-20T13:54:51;4.90;1.00
10901;DHT22;5503;53.208;10.392;2022-11-20T13:57:37;4.60;1.00
10901;DHT22;5503;53.208;10.392;2022-11-20T14:00:12;4.60;1.00
10901;DHT22;5503;53.208;10.392;2022-11-20T14:02:40;4.60;1.00
10901;DHT22;5503;53.208;10.392;2022-11-20T14:05:17;4.60;1.00
10901;DHT22;5503;53.208;10.392;2022-11-20T14:07:46;4.60;1.00
10901;DHT22;5503;53.208;10.392;2022-11-20T14:10:21;4.50;1.00
10901;DHT22;5503;53.208;10.392;2022-11-20T14:12:49;4.60;1.00
10901;DHT22;5503;53.208;10.392;2022-11-20T14:15:28;4.70;1.00
10901;DHT22;5503;53.208;10.392;2022-11-20T14:17:56;7.30;99.90
10901;DHT22;5503;53.208;10.392;2022-11-20T14:20:25;4.80;99.90
10901;DHT22;5503;53.208;10.392;2022-11-20T14:22:54;4.70;99.90
10901;DHT22;5503;53.208;10.392;2022-11-20T14:25:22;4.80;99.90
10901;DHT22;5503;53.208;10.392;2022-11-20T14:27:55;4.60;1.00
10901;DHT22;5503;53.208;10.392;2022-11-20T14:30:24;4.80;1.00
10901;DHT22;5503;53.208;10.392;2022-11-20T14:32:54;5.20;27.90
10901;DHT22;5503;53.208;10.392;2022-11-20T14:35:25;4.80;1.00
10901;DHT22;5503;53.208;10.392;2022-11-20T14:37:54;4.70;1.00
10901;DHT22;5503;53.208;10.392;2022-11-20T14:40:27;4.70;19.50
10901;DHT22;5503;53.208;10.392;2022-11-20T14:42:57;4.70;1.00
10901;DHT22;5503;53.208;10.392;2022-11-20T14:45:25;4.80;1.00
10901;DHT22;5503;53.208;10.392;2022-11-20T14:47:54;4.90;1.00
10901;DHT22;5503;53.208;10.392;2022-11-20T14:50:23;6.50;1.00
10901;DHT22;5503;53.208;10.392;2022-11-20T14:52:52;4.70;1.00
10901;DHT22;5503;53.208;10.392;2022-11-20T14:55:27;4.70;1.00
10901;DHT22;5503;53.208;10.392;2022-11-20T14:57:57;4.80;1.00
10901;DHT22;5503;53.208;10.392;2022-11-20T15:00:25;4.70;1.00
10901;DHT22;5503;53.208;10.392;2022-11-20T15:02:53;4.70;1.00
10901;DHT22;5503;53.208;10.392;2022-11-20T15:05:21;4.90;1.00
10901;DHT22;5503;53.208;10.392;2022-11-20T15:07:51;4.90;1.00
10901;DHT22;5503;53.208;10.392;2022-11-20T15:10:23;4.90;1.00
10901;DHT22;5503;53.208;10.392;2022-11-20T15:12:52;5.00;1.00
10901;DHT22;5503;53.208;10.392;2022-11-20T15:15:25;5.00;99.90
10901;DHT22;5503;53.208;10.392;2022-11-20T15:17:56;4.90;99.90
10901;DHT22;5503;53.208;10.392;2022-11-20T15:20:26;4.90;99.90
10901;DHT22;5503;53.208;10.392;2022-11-20T15:22:54;4.90;99.90
10901;DHT22;5503;53.208;10.392;2022-11-20T15:25:21;5.00;99.90
10901;DHT22;5503;53.208;10.392;2022-11-20T15:27:53;4.90;99.90
10901;DHT22;5503;53.208;10.392;2022-11-20T15:30:23;4.70;1.00
10901;DHT22;5503;53.208;10.392;2022-11-20T15:32:50;4.50;18.30
10901;DHT22;5503;53.208;10.392;2022-11-20T15:35:18;4.40;99.90
10901;DHT22;5503;53.208;10.392;2022-11-20T15:37:45;4.30;1.00
10901;DHT22;5503;53.208;10.392;2022-11-20T15:40:12;4.20;1.00
10901;DHT22;5503;53.208;10.392;2022-11-20T15:42:39;4.10;99.90
10901;DHT22;5503;53.208;10.392;2022-11-20T15:45:31;4.20;99.90
10901;DHT22;5503;53.208;10.392;2022-11-20T15:47:59;4.20;99.90
10901;DHT22;5503;53.208;10.392;2022-11-20T15:50:32;4.10;1.00
10901;DHT22;5503;53.208;10.392;2022-11-20T15:53:04;4.10;1.00
10901;DHT22;5503;53.208;10.392;2022-11-20T15:55:31;4.70;99.90
10901;DHT22;5503;53.208;10.392;2022-11-20T15:57:58;4.30;99.90
10901;DHT22;5503;53.208;10.392;2022-11-20T16:00:25;4.30;99.90
10901;DHT22;5503;53.208;10.392;2022-11-20T16:02:54;4.90;1.00
10901;DHT22;5503;53.208;10.392;2022-11-20T16:05:21;4.30;1.00
10901;DHT22;5503;53.208;10.392;2022-11-20T16:07:50;4.40;1.00
10901;DHT22;5503;53.208;10.392;2022-11-20T16:10:17;4.50;1.00
10901;DHT22;5503;53.208;10.392;2022-11-20T16:12:44;6.20;1.00
10901;DHT22;5503;53.208;10.392;2022-11-20T16:15:29;4.30;99.90
10901;DHT22;5503;53.208;10.392;2022-11-20T16:18:15;4.30;99.90
10901;DHT22;5503;53.208;10.392;2022-11-20T16:20:43;4.30;72.00
10901;DHT22;5503;53.208;10.392;2022-11-20T16:23:10;4.30;99.90
10901;DHT22;5503;53.208;10.392;2022-11-20T16:25:37;4.10;99.90
10901;DHT22;5503;53.208;10.392;2022-11-20T16:28:04;4.20;1.00
10901;DHT22;5503;53.208;10.392;2022-11-20T16:30:34;4.20;1.00
10901;DHT22;5503;53.208;10.392;2022-11-20T16:33:02;4.20;99.90
10901;DHT22;5503;53.208;10.392;2022-11-20T16:35:31;4.20;1.00
10901;DHT22;5503;53.208;10.392;2022-11-20T16:37:58;4.00;1.00
10901;DHT22;5503;53.208;10.392;2022-11-20T16:40:25;4.00;1.00
10901;DHT22;5503;53.208;10.392;2022-11-20T16:42:52;4.00;1.00
10901;DHT22;5503;53.208;10.392;2022-11-20T16:45:20;5.50;99.90
10901;DHT22;5503;53.208;10.392;2022-11-20T16:47:47;4.10;99.90
10901;DHT22;5503;53.208;10.392;2022-11-20T16:50:15;3.80;1.00
10901;DHT22;5503;53.208;10.392;2022-11-20T16:52:43;3.80;99.90
10901;DHT22;5503;53.208;10.392;2022-11-20T16:55:10;3.70;99.90
10901;DHT22;5503;53.208;10.392;2022-11-20T16:57:37;3.80;99.90
10901;DHT22;5503;53.208;10.392;2022-11-20T17:00:08;4.50;99.90
10901;DHT22;5503;53.208;10.392;2022-11-20T17:02:35;3.70;99.90
10901;DHT22;5503;53.208;10.392;2022-11-20T17:05:08;3.70;80.20
10901;DHT22;5503;53.208;10.392;2022-11-20T17:07:37;3.50;1.00
10901;DHT22;5503;53.208;10.392;2022-11-20T17:10:06;3.50;1.00
10901;DHT22;5503;53.208;10.392;2022-11-20T17:12:33;3.40;1.00
10901;DHT22;5503;53.208;10.392;2022-11-20T17:15:00;3.40;91.90
10901;DHT22;5503;53.208;10.392;2022-11-20T17:17:27;3.20;99.90
10901;DHT22;5503;53.208;10.392;2022-11-20T17:19:54;3.20;1.00
10901;DHT22;5503;53.208;10.392;2022-11-20T17:22:23;3.30;1.00
10901;DHT22;5503;53.208;10.392;2022-11-20T17:24:50;3.30;1.00
10901;DHT22;5503;53.208;10.392;2022-11-20T17:27:19;3.30;99.90
10901;DHT22;5503;53.208;10.392;2022-11-20T17:29:46;3.20;1.00
10901;DHT22;5503;53.208;10.392;2022-11-20T17:32:16;3.10;1.00
10901;DHT22;5503;53.208;10.392;2022-11-20T17:34:43;3.10;1.00
10901;DHT22;5503;53.208;10.392;2022-11-20T17:37:10;3.20;1.00
10901;DHT22;5503;53.208;10.392;2022-11-20T17:39:37;3.20;1.00
10901;DHT22;5503;53.208;10.392;2022-11-20T17:42:05;3.20;99.90
10901;DHT22;5503;53.208;10.392;2022-11-20T17:44:53;3.20;82.10
10901;DHT22;5503;53.208;10.392;2022-11-20T17:47:20;3.30;1.00
10901;DHT22;5503;53.208;10.392;2022-11-20T17:49:47;3.20;99.90
10901;DHT22;5503;53.208;10.392;2022-11-20T17:52:24;3.00;1.00
10901;DHT22;5503;53.208;10.392;2022-11-20T17:54:51;2.80;1.00
10901;DHT22;5503;53.208;10.392;2022-11-20T17:57:21;2.90;1.00
10901;DHT22;5503;53.208;10.392;2022-11-20T18:00:08;2.80;1.00
10901;DHT22;5503;53.208;10.392;2022-11-20T18:02:39;2.60;1.00
10901;DHT22;5503;53.208;10.392;2022-11-20T18:05:09;4.50;1.00
10901;DHT22;5503;53.208;10.392;2022-11-20T18:07:37;4.90;1.00
10901;DHT22;5503;53.208;10.392;2022-11-20T18:10:06;2.80;30.20
10901;DHT22;5503;53.208;10.392;2022-11-20T18:12:33;2.60;99.90
10901;DHT22;5503;53.208;10.392;2022-11-20T18:15:00;2.60;1.00
10901;DHT22;5503;53.208;10.392;2022-11-20T18:17:29;2.60;1.00
10901;DHT22;5503;53.208;10.392;2022-11-20T18:19:56;2.60;1.00
10901;DHT22;5503;53.208;10.392;2022-11-20T18:22:23;2.50;1.00
10901;DHT22;5503;53.208;10.392;2022-11-20T18:24:50;2.50;29.20
10901;DHT22;5503;53.208;10.392;2022-11-20T18:27:19;2.40;1.00
10901;DHT22;5503;53.208;10.392;2022-11-20T18:29:47;2.40;1.00
10901;DHT22;5503;53.208;10.392;2022-11-20T18:32:17;2.30;1.00
10901;DHT22;5503;53.208;10.392;2022-11-20T18:34:45;4.60;1.00
10901;DHT22;5503;53.208;10.392;2022-11-20T18:37:12;2.30;99.90
10901;DHT22;5503;53.208;10.392;2022-11-20T18:39:41;2.40;1.00
10901;DHT22;5503;53.208;10.392;2022-11-20T18:42:10;2.50;1.00
10901;DHT22;5503;53.208;10.392;2022-11-20T18:44:55;2.50;99.90
10901;DHT22;5503;53.208;10.392;2022-11-20T18:47:26;2.50;1.00
10901;DHT22;5503;53.208;10.392;2022-11-20T18:49:57;2.40;99.90
10901;DHT22;5503;53.208;10.392;2022-11-20T18:52:27;2.30;99.90
10901;DHT22;5503;53.208;10.392;2022-11-20T18:54:55;2.30;99.90
10901;DHT22;5503;53.208;10.392;2022-11-20T18:57:23;2.30;1.00
10901;DHT22;5503;53.208;10.392;2022-11-20T18:59:51;2.20;1.00
10901;DHT22;5503;53.208;10.392;2022-11-20T19:02:19;2.30;1.00
10901;DHT22;5503;53.208;10.392;2022-11-20T19:04:47;2.20;1.00
10901;DHT22;5503;53.208;10.392;2022-11-20T19:07:16;2.20;1.00
10901;DHT22;5503;53.208;10.392;2022-11-20T19:09:46;2.30;1.00
10901;DHT22;5503;53.208;10.392;2022-11-20T19:12:15;2.40;1.00
10901;DHT22;5503;53.208;10.392;2022-11-20T19:14:42;2.50;1.00
10901;DHT22;5503;53.208;10.392;2022-11-20T19:17:09;2.40;1.00
10901;DHT22;5503;53.208;10.392;2022-11-20T19:19:37;2.20;99.90
10901;DHT22;5503;53.208;10.392;2022-11-20T19:22:04;2.20;1.00
10901;DHT22;5503;53.208;10.392;2022-11-20T19:24:34;2.30;99.90
10901;DHT22;5503;53.208;10.392;2022-11-20T19:27:01;2.30;1.00
10901;DHT22;5503;53.208;10.392;2022-11-20T19:29:28;2.20;1.00
10901;DHT22;5503;53.208;10.392;2022-11-20T19:31:55;2.20;1.00
10901;DHT22;5503;53.208;10.392;2022-11-20T19:34:22;2.30;1.00
10901;DHT22;5503;53.208;10.392;2022-11-20T19:36:50;2.20;28.80
10901;DHT22;5503;53.208;10.392;2022-11-20T19:39:17;3.60;1.00
10901;DHT22;5503;53.208;10.392;2022-11-20T19:41:46;2.00;1.00
10901;DHT22;5503;53.208;10.392;2022-11-20T19:44:14;1.90;99.90
10901;DHT22;5503;53.208;10.392;2022-11-20T19:46:42;2.10;1.00
10901;DHT22;5503;53.208;10.392;2022-11-20T19:49:11;2.10;1.00
10901;DHT22;5503;53.208;10.392;2022-11-20T19:51:45;2.10;1.00
10901;DHT22;5503;53.208;10.392;2022-11-20T19:54:17;2.10;1.00
10901;DHT22;5503;53.208;10.392;2022-11-20T19:56:46;1.90;95.10
10901;DHT22;5503;53.208;10.392;2022-11-20T19:59:14;1.80;1.00
10901;DHT22;5503;53.208;10.392;2022-11-20T20:01:41;1.70;1.00
10901;DHT22;5503;53.208;10.392;2022-11-20T20:04:08;1.70;1.00
10901;DHT22;5503;53.208;10.392;2022-11-20T20:06:36;1.80;99.90
10901;DHT22;5503;53.208;10.392;2022-11-20T20:09:06;1.70;99.90
10901;DHT22;5503;53.208;10.392;2022-11-20T20:11:34;1.80;1.00
10901;DHT22;5503;53.208;10.392;2022-11-20T20:14:03;1.80;99.90
10901;DHT22;5503;53.208;10.392;2022-11-20T20:16:31;1.60;99.90
10901;DHT22;5503;53.208;10.392;2022-11-20T20:19:00;1.60;99.90
10901;DHT22;5503;53.208;10.392;2022-11-20T20:21:28;1.60;1.00
10901;DHT22;5503;53.208;10.392;2022-11-20T20:23:56;1.80;1.00
10901;DHT22;5503;53.208;10.392;2022-11-20T20:26:25;1.30;99.90
10901;DHT22;5503;53.208;10.392;2022-11-20T20:28:53;1.70;1.00
10901;DHT22;5503;53.208;10.392;2022-11-20T20:31:23;1.70;31.00
10901;DHT22;5503;53.208;10.392;2022-11-20T20:33:50;1.80;1.00
10901;DHT22;5503;53.208;10.392;2022-11-20T20:36:19;1.80;1.00
10901;DHT22;5503;53.208;10.392;2022-11-20T20:38:46;1.90;99.90
10901;DHT22;5503;53.208;10.392;2022-11-20T20:41:13;2.10;99.90
10901;DHT22;5503;53.208;10.392;2022-11-20T20:43:40;2.10;1.00
10901;DHT22;5503;53.208;10.392;2022-11-20T20:46:26;2.00;88.60
10901;DHT22;5503;53.208;10.392;2022-11-20T20:48:54;3.30;99.90
10901;DHT22;5503;53.208;10.392;2022-11-20T20:51:22;1.90;1.00
10901;DHT22;5503;53.208;10.392;2022-11-20T20:53:52;1.90;99.90
10901;DHT22;5503;53.208;10.392;2022-11-20T20:56:20;1.90;99.90
10901;DHT22;5503;53.208;10.392;2022-11-20T20:58:47;1.70;1.00
10901;DHT22;5503;53.208;10.392;2022-11-20T21:01:15;1.50;90.50
10901;DHT22;5503;53.208;10.392;2022-11-20T21:03:44;1.40;1.00
10901;DHT22;5503;53.208;10.392;2022-11-20T21:06:11;1.40;1.00
10901;DHT22;5503;53.208;10.392;2022-11-20T21:08:39;1.40;1.00
10901;DHT22;5503;53.208;10.392;2022-11-20T21:11:08;1.50;1.00
10901;DHT22;5503;53.208;10.392;2022-11-20T21:13:38;1.60;1.00
10901;DHT22;5503;53.208;10.392;2022-11-20T21:16:08;3.70;1.00
10901;DHT22;5503;53.208;10.392;2022-11-20T21:18:35;1.80;1.00
10901;DHT22;5503;53.208;10.392;2022-11-20T21:21:06;1.70;1.00
10901;DHT22;5503;53.208;10.392;2022-11-20T21:23:51;1.60;1.00
10901;DHT22;5503;53.208;10.392;2022-11-20T21:26:19;1.50;1.00
10901;DHT22;5503;53.208;10.392;2022-11-20T21:28:46;1.50;1.00
10901;DHT22;5503;53.208;10.392;2022-11-20T21:31:15;1.60;1.00
10901;DHT22;5503;53.208;10.392;2022-11-20T21:33:44;1.70;1.00
10901;DHT22;5503;53.208;10.392;2022-11-20T21:36:14;1.60;1.00
10901;DHT22;5503;53.208;10.392;2022-11-20T21:38:41;1.60;1.00
10901;DHT22;5503;53.208;10.392;2022-11-20T21:41:10;1.50;1.00
10901;DHT22;5503;53.208;10.392;2022-11-20T21:43:37;1.50;1.00
10901;DHT22;5503;53.208;10.392;2022-11-20T21:46:06;1.50;1.00
10901;DHT22;5503;53.208;10.392;2022-11-20T21:48:35;1.70;1.00
10901;DHT22;5503;53.208;10.392;2022-11-20T21:51:02;1.80;1.00
10901;DHT22;5503;53.208;10.392;2022-11-20T21:53:31;2.10;99.90